メインページ
METAR-TAF:

METAR-TAF

空港 :

マジュロ国際空港

マジュロ, マーシャル諸島

緯度: 07-04N, 経度: 171-17E, 海抜: 2m

現時点の気象観測

当レポートは1時間6分前の21:58(UTC)に作成
東/北東の風 11kt
気温 29°C
湿度 79%
気圧 1009 hPa
視程: 24.1km
高度1500ftの雲はほとんどない
高度5000ftの雲は散在している
高度12000ftの千切れ雲あり
高度30000ftの千切れ雲あり

METAR: PKMJ 112158Z 06011KT 15SM FEW015 SCT050 BKN120 BKN300 29/25 A2979 RMK LAST

時間: 11:04 (23:04 UTC)

予報

当レポートは5時間44分前の17:20(UTC)に作成
予報は11日の 18時(UTC)から 12日の 18時(UTC)まで有効
の風 11kt
視程: 10km
高度1500ftの雲は散在している
高度5000ftの雲は散在している
高度12000ftの千切れ雲あり
近辺でにわか雨

TAF: PKMJ 111720Z 1118/1218 10011KT P6SM VCSH SCT015 SCT050 BKN120

4,000以上の空港の気象観測と天気予報(METAR報とTAF報)

利用可能な観測所は地図上に黄色い丸と赤い丸で示す。

丸の上にカーソルを重ねると観測所名を参照できる。

次にクリックすると気象観測と天気予報を参照できる。

マップの切り替え:黒色「×」印の緑ボタンをクリックして拡大、「-」印の緑ボタンをクリックして縮小、緑色の三角印をクリックして隣りの地図に切り替え


METAR-TAF: